sensor_id;sensor_type;location;lat;lon;timestamp;pressure;altitude;pressure_sealevel;temperature;humidity
59531;BME280;45349;48.692;8.186;2023-04-05T00:02:07;99159.66;;;0.13;68.89
59531;BME280;45349;48.692;8.186;2023-04-05T00:04:38;99156.75;;;0.21;68.11
59531;BME280;45349;48.692;8.186;2023-04-05T00:07:17;99164.75;;;0.15;69.41
59531;BME280;45349;48.692;8.186;2023-04-05T00:09:46;99163.91;;;0.14;71.32
59531;BME280;45349;48.692;8.186;2023-04-05T00:12:13;99164.25;;;0.07;71.20
59531;BME280;45349;48.692;8.186;2023-04-05T00:14:40;99161.75;;;0.05;71.86
59531;BME280;45349;48.692;8.186;2023-04-05T00:17:06;99162.78;;;0.01;71.79
59531;BME280;45349;48.692;8.186;2023-04-05T00:19:33;99163.63;;;0.02;72.22
59531;BME280;45349;48.692;8.186;2023-04-05T00:22:02;99156.94;;;-0.01;73.02
59531;BME280;45349;48.692;8.186;2023-04-05T00:24:30;99159.31;;;0.02;72.93
59531;BME280;45349;48.692;8.186;2023-04-05T00:26:58;99155.84;;;0.03;73.24
59531;BME280;45349;48.692;8.186;2023-04-05T00:29:25;99160.16;;;0.03;72.48
59531;BME280;45349;48.692;8.186;2023-04-05T00:31:51;99159.88;;;0.09;73.34
59531;BME280;45349;48.692;8.186;2023-04-05T00:34:18;99156.63;;;0.05;73.93
59531;BME280;45349;48.692;8.186;2023-04-05T00:36:45;99156.31;;;-0.06;73.83
59531;BME280;45349;48.692;8.186;2023-04-05T00:39:11;99149.69;;;-0.12;73.71
59531;BME280;45349;48.692;8.186;2023-04-05T00:41:39;99151.44;;;-0.12;73.51
59531;BME280;45349;48.692;8.186;2023-04-05T00:44:06;99146.19;;;-0.09;73.62
59531;BME280;45349;48.692;8.186;2023-04-05T00:46:33;99146.31;;;-0.12;74.79
59531;BME280;45349;48.692;8.186;2023-04-05T00:49:01;99143.63;;;-0.09;74.72
59531;BME280;45349;48.692;8.186;2023-04-05T00:51:29;99147.84;;;-0.08;74.45
59531;BME280;45349;48.692;8.186;2023-04-05T00:53:58;99141.72;;;-0.06;72.67
59531;BME280;45349;48.692;8.186;2023-04-05T00:56:26;99138.97;;;-0.01;72.71
59531;BME280;45349;48.692;8.186;2023-04-05T00:58:54;99138.88;;;0.01;73.24
59531;BME280;45349;48.692;8.186;2023-04-05T01:01:22;99139.88;;;-0.02;73.56
59531;BME280;45349;48.692;8.186;2023-04-05T01:03:53;99145.91;;;-0.03;72.90
59531;BME280;45349;48.692;8.186;2023-04-05T01:06:48;99147.34;;;0.03;73.02
59531;BME280;45349;48.692;8.186;2023-04-05T01:09:27;99128.69;;;-0.01;72.17
59531;BME280;45349;48.692;8.186;2023-04-05T01:11:58;99133.50;;;0.05;72.24
59531;BME280;45349;48.692;8.186;2023-04-05T01:14:27;99129.22;;;0.06;71.11
59531;BME280;45349;48.692;8.186;2023-04-05T01:16:54;99126.13;;;-0.01;71.22
59531;BME280;45349;48.692;8.186;2023-04-05T01:19:26;99128.38;;;0.05;72.84
59531;BME280;45349;48.692;8.186;2023-04-05T01:22:14;99122.19;;;-0.08;73.23
59531;BME280;45349;48.692;8.186;2023-04-05T01:25:11;99120.66;;;-0.12;73.53
59531;BME280;45349;48.692;8.186;2023-04-05T01:27:54;99116.72;;;-0.20;74.91
59531;BME280;45349;48.692;8.186;2023-04-05T01:30:25;99119.19;;;-0.18;75.73
59531;BME280;45349;48.692;8.186;2023-04-05T01:33:05;99111.50;;;-0.18;78.64
59531;BME280;45349;48.692;8.186;2023-04-05T01:35:43;99112.53;;;-0.22;79.63
59531;BME280;45349;48.692;8.186;2023-04-05T01:38:17;99110.53;;;-0.35;79.25
59531;BME280;45349;48.692;8.186;2023-04-05T01:40:46;99114.63;;;-0.50;77.54
59531;BME280;45349;48.692;8.186;2023-04-05T01:43:13;99107.56;;;-0.64;79.02
59531;BME280;45349;48.692;8.186;2023-04-05T01:45:42;99109.66;;;-0.73;79.51
59531;BME280;45349;48.692;8.186;2023-04-05T01:48:09;99112.72;;;-0.84;80.76
59531;BME280;45349;48.692;8.186;2023-04-05T01:50:36;99111.88;;;-0.85;80.46
59531;BME280;45349;48.692;8.186;2023-04-05T01:53:03;99107.00;;;-0.91;80.49
59531;BME280;45349;48.692;8.186;2023-04-05T01:55:30;99103.13;;;-1.00;81.11
59531;BME280;45349;48.692;8.186;2023-04-05T01:57:56;99101.72;;;-1.07;82.12
59531;BME280;45349;48.692;8.186;2023-04-05T02:00:23;99100.13;;;-1.10;80.83
59531;BME280;45349;48.692;8.186;2023-04-05T02:02:52;99099.53;;;-1.16;79.93
59531;BME280;45349;48.692;8.186;2023-04-05T02:05:18;99091.84;;;-1.16;79.19
59531;BME280;45349;48.692;8.186;2023-04-05T02:07:45;99087.13;;;-1.26;79.23
59531;BME280;45349;48.692;8.186;2023-04-05T02:10:13;99087.97;;;-1.25;78.51
59531;BME280;45349;48.692;8.186;2023-04-05T02:12:40;99088.00;;;-1.27;80.36
59531;BME280;45349;48.692;8.186;2023-04-05T02:15:07;99089.13;;;-1.32;80.19
59531;BME280;45349;48.692;8.186;2023-04-05T02:17:34;99080.91;;;-1.41;79.89
59531;BME280;45349;48.692;8.186;2023-04-05T02:20:05;99082.13;;;-1.50;79.56
59531;BME280;45349;48.692;8.186;2023-04-05T02:22:33;99077.25;;;-1.56;80.33
59531;BME280;45349;48.692;8.186;2023-04-05T02:25:01;99089.09;;;-1.53;80.16
59531;BME280;45349;48.692;8.186;2023-04-05T02:27:28;99089.66;;;-1.46;81.31
59531;BME280;45349;48.692;8.186;2023-04-05T02:29:55;99086.66;;;-1.56;80.84
59531;BME280;45349;48.692;8.186;2023-04-05T02:32:21;99085.81;;;-1.57;80.45
59531;BME280;45349;48.692;8.186;2023-04-05T02:34:48;99088.22;;;-1.52;81.43
59531;BME280;45349;48.692;8.186;2023-04-05T02:37:18;99083.53;;;-1.63;80.48
59531;BME280;45349;48.692;8.186;2023-04-05T02:39:45;99079.19;;;-1.61;81.90
59531;BME280;45349;48.692;8.186;2023-04-05T02:42:11;99088.13;;;-1.51;83.21
59531;BME280;45349;48.692;8.186;2023-04-05T02:44:38;99084.09;;;-1.56;82.12
59531;BME280;45349;48.692;8.186;2023-04-05T02:47:05;99087.44;;;-1.54;80.50
59531;BME280;45349;48.692;8.186;2023-04-05T02:49:31;99082.25;;;-1.53;82.28
59531;BME280;45349;48.692;8.186;2023-04-05T02:52:01;99085.00;;;-1.57;83.22
59531;BME280;45349;48.692;8.186;2023-04-05T02:54:29;99084.47;;;-1.66;82.60
59531;BME280;45349;48.692;8.186;2023-04-05T02:56:59;99080.44;;;-1.71;82.74
59531;BME280;45349;48.692;8.186;2023-04-05T02:59:35;99080.69;;;-1.77;83.02
59531;BME280;45349;48.692;8.186;2023-04-05T03:02:03;99076.72;;;-1.85;82.80
59531;BME280;45349;48.692;8.186;2023-04-05T03:04:30;99075.09;;;-1.87;84.15
59531;BME280;45349;48.692;8.186;2023-04-05T03:07:01;99076.06;;;-1.90;84.68
59531;BME280;45349;48.692;8.186;2023-04-05T03:09:33;99072.63;;;-1.89;85.17
59531;BME280;45349;48.692;8.186;2023-04-05T03:12:05;99078.53;;;-1.88;85.99
59531;BME280;45349;48.692;8.186;2023-04-05T03:14:35;99075.09;;;-1.87;85.19
59531;BME280;45349;48.692;8.186;2023-04-05T03:17:02;99072.50;;;-1.86;86.03
59531;BME280;45349;48.692;8.186;2023-04-05T03:19:35;99077.28;;;-1.78;85.57
59531;BME280;45349;48.692;8.186;2023-04-05T03:22:11;99068.19;;;-1.85;84.55
59531;BME280;45349;48.692;8.186;2023-04-05T03:24:41;99066.00;;;-1.95;83.81
59531;BME280;45349;48.692;8.186;2023-04-05T03:27:09;99070.47;;;-2.00;84.93
59531;BME280;45349;48.692;8.186;2023-04-05T03:29:45;99067.91;;;-2.00;85.45
59531;BME280;45349;48.692;8.186;2023-04-05T03:32:15;99072.25;;;-2.02;85.53
59531;BME280;45349;48.692;8.186;2023-04-05T03:34:48;99076.59;;;-2.04;85.38
59531;BME280;45349;48.692;8.186;2023-04-05T03:37:16;99075.56;;;-2.00;85.66
59531;BME280;45349;48.692;8.186;2023-04-05T03:39:51;99075.28;;;-1.92;86.34
59531;BME280;45349;48.692;8.186;2023-04-05T03:42:18;99072.78;;;-1.94;87.01
59531;BME280;45349;48.692;8.186;2023-04-05T03:44:44;99080.03;;;-2.05;85.66
59531;BME280;45349;48.692;8.186;2023-04-05T03:47:12;99076.00;;;-2.11;86.33
59531;BME280;45349;48.692;8.186;2023-04-05T03:49:40;99076.66;;;-2.05;86.16
59531;BME280;45349;48.692;8.186;2023-04-05T03:52:06;99074.94;;;-2.05;85.02
59531;BME280;45349;48.692;8.186;2023-04-05T03:54:33;99075.78;;;-2.04;87.00
59531;BME280;45349;48.692;8.186;2023-04-05T03:57:01;99077.59;;;-2.08;86.40
59531;BME280;45349;48.692;8.186;2023-04-05T03:59:29;99073.34;;;-2.08;85.35
59531;BME280;45349;48.692;8.186;2023-04-05T04:01:58;99075.00;;;-2.06;86.95
59531;BME280;45349;48.692;8.186;2023-04-05T04:04:25;99069.41;;;-2.16;86.69
59531;BME280;45349;48.692;8.186;2023-04-05T04:06:52;99070.66;;;-2.27;86.78
59531;BME280;45349;48.692;8.186;2023-04-05T04:09:22;99072.13;;;-2.21;87.68
59531;BME280;45349;48.692;8.186;2023-04-05T04:11:49;99077.44;;;-2.26;86.74
59531;BME280;45349;48.692;8.186;2023-04-05T04:14:20;99069.28;;;-2.35;86.91
59531;BME280;45349;48.692;8.186;2023-04-05T04:17:00;99078.56;;;-2.33;87.02
59531;BME280;45349;48.692;8.186;2023-04-05T04:19:49;99066.91;;;-2.40;87.55
59531;BME280;45349;48.692;8.186;2023-04-05T04:22:44;99072.84;;;-2.40;87.05
59531;BME280;45349;48.692;8.186;2023-04-05T04:25:49;99071.25;;;-2.42;86.65
59531;BME280;45349;48.692;8.186;2023-04-05T04:28:37;99077.59;;;-2.53;87.67
59531;BME280;45349;48.692;8.186;2023-04-05T04:31:37;99071.25;;;-2.42;87.73
59531;BME280;45349;48.692;8.186;2023-04-05T04:34:14;99067.69;;;-2.38;87.83
59531;BME280;45349;48.692;8.186;2023-04-05T04:37:02;99068.38;;;-2.34;86.80
59531;BME280;45349;48.692;8.186;2023-04-05T04:39:32;99075.78;;;-2.27;86.40
59531;BME280;45349;48.692;8.186;2023-04-05T04:42:10;99073.69;;;-2.17;85.22
59531;BME280;45349;48.692;8.186;2023-04-05T04:44:55;99073.56;;;-2.14;84.77
59531;BME280;45349;48.692;8.186;2023-04-05T04:47:49;99076.81;;;-2.10;84.60
59531;BME280;45349;48.692;8.186;2023-04-05T04:50:31;99075.16;;;-2.11;84.68
59531;BME280;45349;48.692;8.186;2023-04-05T04:52:58;99072.75;;;-2.14;84.60
59531;BME280;45349;48.692;8.186;2023-04-05T04:55:24;99075.47;;;-2.19;85.99
59531;BME280;45349;48.692;8.186;2023-04-05T04:57:52;99071.25;;;-2.20;85.60
59531;BME280;45349;48.692;8.186;2023-04-05T05:00:19;99075.59;;;-2.22;84.50
59531;BME280;45349;48.692;8.186;2023-04-05T05:02:47;99074.00;;;-2.25;85.19
59531;BME280;45349;48.692;8.186;2023-04-05T05:05:16;99073.75;;;-2.18;86.40
59531;BME280;45349;48.692;8.186;2023-04-05T05:07:47;99080.59;;;-2.19;86.51
59531;BME280;45349;48.692;8.186;2023-04-05T05:10:14;99080.03;;;-2.27;86.07
59531;BME280;45349;48.692;8.186;2023-04-05T05:12:41;99069.94;;;-2.30;85.53
59531;BME280;45349;48.692;8.186;2023-04-05T05:15:10;99074.94;;;-2.27;86.04
59531;BME280;45349;48.692;8.186;2023-04-05T05:17:37;99077.88;;;-2.14;85.57
59531;BME280;45349;48.692;8.186;2023-04-05T05:20:05;99079.47;;;-2.12;85.50
59531;BME280;45349;48.692;8.186;2023-04-05T05:22:35;99077.72;;;-2.11;85.90
59531;BME280;45349;48.692;8.186;2023-04-05T05:25:01;99082.78;;;-2.10;85.54
59531;BME280;45349;48.692;8.186;2023-04-05T05:27:28;99079.38;;;-2.10;85.46
59531;BME280;45349;48.692;8.186;2023-04-05T05:29:54;99084.22;;;-2.02;85.46
59531;BME280;45349;48.692;8.186;2023-04-05T05:32:21;99077.59;;;-2.08;85.42
59531;BME280;45349;48.692;8.186;2023-04-05T05:34:48;99087.66;;;-2.03;85.04
59531;BME280;45349;48.692;8.186;2023-04-05T05:37:14;99079.69;;;-1.96;84.74
59531;BME280;45349;48.692;8.186;2023-04-05T05:39:43;99081.72;;;-1.82;85.39
59531;BME280;45349;48.692;8.186;2023-04-05T05:42:10;99085.75;;;-1.76;84.63
59531;BME280;45349;48.692;8.186;2023-04-05T05:44:36;99078.78;;;-1.72;84.03
59531;BME280;45349;48.692;8.186;2023-04-05T05:47:03;99083.78;;;-1.69;84.26
59531;BME280;45349;48.692;8.186;2023-04-05T05:49:30;99091.09;;;-1.60;85.55
59531;BME280;45349;48.692;8.186;2023-04-05T05:51:56;99085.97;;;-1.60;86.07
59531;BME280;45349;48.692;8.186;2023-04-05T05:54:24;99088.56;;;-1.61;84.71
59531;BME280;45349;48.692;8.186;2023-04-05T05:56:52;99094.28;;;-1.55;85.79
59531;BME280;45349;48.692;8.186;2023-04-05T05:59:18;99090.44;;;-1.65;85.04
59531;BME280;45349;48.692;8.186;2023-04-05T06:01:45;99094.56;;;-1.61;85.67
59531;BME280;45349;48.692;8.186;2023-04-05T06:04:11;99102.78;;;-1.54;85.11
59531;BME280;45349;48.692;8.186;2023-04-05T06:06:38;99104.47;;;-1.53;85.22
59531;BME280;45349;48.692;8.186;2023-04-05T06:09:07;99100.00;;;-1.48;85.40
59531;BME280;45349;48.692;8.186;2023-04-05T06:11:33;99111.66;;;-1.41;87.72
59531;BME280;45349;48.692;8.186;2023-04-05T06:14:01;99102.19;;;-1.39;85.60
59531;BME280;45349;48.692;8.186;2023-04-05T06:16:28;99106.44;;;-1.39;85.48
59531;BME280;45349;48.692;8.186;2023-04-05T06:18:55;99104.75;;;-1.39;84.92
59531;BME280;45349;48.692;8.186;2023-04-05T06:21:22;99112.34;;;-1.37;85.09
59531;BME280;45349;48.692;8.186;2023-04-05T06:23:50;99107.75;;;-1.29;86.27
59531;BME280;45349;48.692;8.186;2023-04-05T06:26:17;99117.09;;;-1.28;85.87
59531;BME280;45349;48.692;8.186;2023-04-05T06:28:45;99114.53;;;-1.28;86.37
59531;BME280;45349;48.692;8.186;2023-04-05T06:31:15;99111.03;;;-1.25;87.00
59531;BME280;45349;48.692;8.186;2023-04-05T06:33:42;99115.94;;;-1.21;86.60
59531;BME280;45349;48.692;8.186;2023-04-05T06:36:09;99115.16;;;-1.23;85.43
59531;BME280;45349;48.692;8.186;2023-04-05T06:38:36;99117.84;;;-1.26;85.98
59531;BME280;45349;48.692;8.186;2023-04-05T06:41:02;99108.50;;;-1.27;86.37
59531;BME280;45349;48.692;8.186;2023-04-05T06:43:29;99116.97;;;-1.25;85.81
59531;BME280;45349;48.692;8.186;2023-04-05T06:45:56;99115.94;;;-1.21;86.20
59531;BME280;45349;48.692;8.186;2023-04-05T06:48:25;99116.53;;;-1.14;85.84
59531;BME280;45349;48.692;8.186;2023-04-05T06:50:56;99116.53;;;-1.14;85.87
59531;BME280;45349;48.692;8.186;2023-04-05T06:53:23;99106.97;;;-1.10;85.10
59531;BME280;45349;48.692;8.186;2023-04-05T06:55:51;99109.41;;;-1.07;85.27
59531;BME280;45349;48.692;8.186;2023-04-05T06:58:18;99110.84;;;-1.01;84.67
59531;BME280;45349;48.692;8.186;2023-04-05T07:00:45;99105.28;;;-0.91;84.35
59531;BME280;45349;48.692;8.186;2023-04-05T07:03:12;99107.47;;;-0.81;84.27
59531;BME280;45349;48.692;8.186;2023-04-05T07:05:40;99105.53;;;-0.76;83.74
59531;BME280;45349;48.692;8.186;2023-04-05T07:08:06;99109.53;;;-0.70;83.92
59531;BME280;45349;48.692;8.186;2023-04-05T07:10:33;99110.66;;;-0.57;83.82
59531;BME280;45349;48.692;8.186;2023-04-05T07:12:59;99110.25;;;-0.48;83.59
59531;BME280;45349;48.692;8.186;2023-04-05T07:15:26;99114.84;;;-0.35;82.83
59531;BME280;45349;48.692;8.186;2023-04-05T07:17:53;99114.06;;;-0.18;81.49
59531;BME280;45349;48.692;8.186;2023-04-05T07:20:19;99114.19;;;-0.02;80.32
59531;BME280;45349;48.692;8.186;2023-04-05T07:22:47;99112.50;;;0.16;79.14
59531;BME280;45349;48.692;8.186;2023-04-05T07:25:14;99104.88;;;0.32;78.72
59531;BME280;45349;48.692;8.186;2023-04-05T07:27:40;99112.59;;;0.50;78.20
59531;BME280;45349;48.692;8.186;2023-04-05T07:30:08;99113.56;;;0.65;77.05
59531;BME280;45349;48.692;8.186;2023-04-05T07:32:34;99104.19;;;0.81;76.52
59531;BME280;45349;48.692;8.186;2023-04-05T07:35:01;99105.94;;;0.98;74.92
59531;BME280;45349;48.692;8.186;2023-04-05T07:37:28;99102.66;;;1.12;75.01
59531;BME280;45349;48.692;8.186;2023-04-05T07:39:56;99111.41;;;1.26;71.97
59531;BME280;45349;48.692;8.186;2023-04-05T07:42:23;99116.56;;;1.42;69.39
59531;BME280;45349;48.692;8.186;2023-04-05T07:44:50;99112.91;;;1.46;68.90
59531;BME280;45349;48.692;8.186;2023-04-05T07:47:17;99118.31;;;1.57;68.78
59531;BME280;45349;48.692;8.186;2023-04-05T07:49:44;99114.59;;;1.63;68.35
59531;BME280;45349;48.692;8.186;2023-04-05T07:52:10;99112.44;;;1.71;68.98
59531;BME280;45349;48.692;8.186;2023-04-05T07:54:37;99119.59;;;1.82;69.16
59531;BME280;45349;48.692;8.186;2023-04-05T07:57:05;99121.31;;;1.82;68.07
59531;BME280;45349;48.692;8.186;2023-04-05T07:59:32;99119.75;;;1.95;68.78
59531;BME280;45349;48.692;8.186;2023-04-05T08:01:59;99117.69;;;2.02;69.67
59531;BME280;45349;48.692;8.186;2023-04-05T08:04:26;99119.50;;;2.16;67.95
59531;BME280;45349;48.692;8.186;2023-04-05T08:06:52;99123.78;;;2.31;66.86
59531;BME280;45349;48.692;8.186;2023-04-05T08:09:19;99119.56;;;2.30;67.64
59531;BME280;45349;48.692;8.186;2023-04-05T08:11:45;99138.06;;;2.37;68.31
59531;BME280;45349;48.692;8.186;2023-04-05T08:14:14;99132.66;;;2.42;68.26
59531;BME280;45349;48.692;8.186;2023-04-05T08:16:41;99136.63;;;2.47;66.44
59531;BME280;45349;48.692;8.186;2023-04-05T08:19:08;99124.75;;;2.45;64.94
59531;BME280;45349;48.692;8.186;2023-04-05T08:21:35;99134.44;;;2.56;65.90
59531;BME280;45349;48.692;8.186;2023-04-05T08:24:01;99130.13;;;2.56;66.78
59531;BME280;45349;48.692;8.186;2023-04-05T08:26:28;99129.50;;;2.67;64.61
59531;BME280;45349;48.692;8.186;2023-04-05T08:28:54;99127.84;;;2.66;66.30
59531;BME280;45349;48.692;8.186;2023-04-05T08:31:22;99135.81;;;2.77;66.65
59531;BME280;45349;48.692;8.186;2023-04-05T08:33:49;99129.81;;;2.77;68.25
59531;BME280;45349;48.692;8.186;2023-04-05T08:36:16;99128.00;;;2.93;67.65
59531;BME280;45349;48.692;8.186;2023-04-05T08:38:43;99126.72;;;3.01;66.71
59531;BME280;45349;48.692;8.186;2023-04-05T08:41:13;99127.66;;;3.14;66.49
59531;BME280;45349;48.692;8.186;2023-04-05T08:43:54;99121.69;;;3.14;65.95
59531;BME280;45349;48.692;8.186;2023-04-05T08:46:24;99130.44;;;3.25;64.58
59531;BME280;45349;48.692;8.186;2023-04-05T08:48:51;99127.38;;;3.33;62.24
59531;BME280;45349;48.692;8.186;2023-04-05T08:51:19;99131.72;;;3.33;62.88
59531;BME280;45349;48.692;8.186;2023-04-05T08:53:46;99129.69;;;3.38;63.54
59531;BME280;45349;48.692;8.186;2023-04-05T08:56:14;99114.66;;;3.45;62.30
59531;BME280;45349;48.692;8.186;2023-04-05T08:58:47;99127.66;;;3.58;61.66
59531;BME280;45349;48.692;8.186;2023-04-05T09:01:15;99128.22;;;3.63;59.83
59531;BME280;45349;48.692;8.186;2023-04-05T09:03:44;99125.16;;;3.71;58.86
59531;BME280;45349;48.692;8.186;2023-04-05T09:06:12;99122.25;;;3.75;57.27
59531;BME280;45349;48.692;8.186;2023-04-05T09:08:40;99121.75;;;3.70;57.02
59531;BME280;45349;48.692;8.186;2023-04-05T09:11:06;99127.25;;;3.78;59.23
59531;BME280;45349;48.692;8.186;2023-04-05T09:13:33;99122.34;;;3.88;58.90
59531;BME280;45349;48.692;8.186;2023-04-05T09:16:00;99126.94;;;3.97;57.83
59531;BME280;45349;48.692;8.186;2023-04-05T09:18:26;99123.06;;;4.05;56.47
59531;BME280;45349;48.692;8.186;2023-04-05T09:21:02;99119.25;;;4.10;57.14
59531;BME280;45349;48.692;8.186;2023-04-05T09:23:29;99120.00;;;4.25;57.30
59531;BME280;45349;48.692;8.186;2023-04-05T09:25:56;99122.84;;;4.35;56.93
59531;BME280;45349;48.692;8.186;2023-04-05T09:28:38;99114.19;;;4.49;55.32
59531;BME280;45349;48.692;8.186;2023-04-05T09:31:05;99115.25;;;4.60;56.35
59531;BME280;45349;48.692;8.186;2023-04-05T09:33:33;99110.59;;;4.65;55.78
59531;BME280;45349;48.692;8.186;2023-04-05T09:35:59;99122.53;;;4.80;55.24
59531;BME280;45349;48.692;8.186;2023-04-05T09:41:19;99121.28;;;4.86;55.71
59531;BME280;45349;48.692;8.186;2023-04-05T09:43:48;99123.06;;;4.85;52.72
59531;BME280;45349;48.692;8.186;2023-04-05T09:46:31;99114.44;;;4.85;52.35
59531;BME280;45349;48.692;8.186;2023-04-05T09:48:58;99119.22;;;4.78;53.02
59531;BME280;45349;48.692;8.186;2023-04-05T09:51:31;99117.66;;;4.88;52.51
59531;BME280;45349;48.692;8.186;2023-04-05T09:54:00;99115.59;;;4.94;53.57
59531;BME280;45349;48.692;8.186;2023-04-05T09:56:34;99112.91;;;4.95;54.43
59531;BME280;45349;48.692;8.186;2023-04-05T09:59:05;99107.03;;;5.06;53.32
59531;BME280;45349;48.692;8.186;2023-04-05T10:01:32;99099.06;;;5.09;53.17
59531;BME280;45349;48.692;8.186;2023-04-05T10:03:59;99106.72;;;5.24;53.13
59531;BME280;45349;48.692;8.186;2023-04-05T10:06:37;99108.84;;;5.43;51.91
59531;BME280;45349;48.692;8.186;2023-04-05T10:09:04;99111.84;;;5.50;52.81
59531;BME280;45349;48.692;8.186;2023-04-05T10:11:33;99106.06;;;5.46;51.17
59531;BME280;45349;48.692;8.186;2023-04-05T10:14:02;99117.09;;;5.61;49.84
59531;BME280;45349;48.692;8.186;2023-04-05T10:16:32;99108.19;;;5.65;48.61
59531;BME280;45349;48.692;8.186;2023-04-05T10:18:59;99100.09;;;5.70;49.33
59531;BME280;45349;48.692;8.186;2023-04-05T10:21:29;99098.25;;;5.59;48.61
59531;BME280;45349;48.692;8.186;2023-04-05T10:24:02;99097.47;;;5.83;47.92
59531;BME280;45349;48.692;8.186;2023-04-05T10:26:35;99095.47;;;5.86;48.04
59531;BME280;45349;48.692;8.186;2023-04-05T10:29:08;99093.59;;;6.01;47.68
59531;BME280;45349;48.692;8.186;2023-04-05T10:31:43;99096.47;;;6.10;47.73
59531;BME280;45349;48.692;8.186;2023-04-05T10:34:18;99083.16;;;6.14;46.16
59531;BME280;45349;48.692;8.186;2023-04-05T10:36:49;99081.22;;;6.05;45.63
59531;BME280;45349;48.692;8.186;2023-04-05T10:39:22;99073.59;;;6.03;46.85
59531;BME280;45349;48.692;8.186;2023-04-05T10:41:53;99083.34;;;6.24;48.69
59531;BME280;45349;48.692;8.186;2023-04-05T10:44:22;99078.88;;;6.26;46.12
59531;BME280;45349;48.692;8.186;2023-04-05T10:46:49;99069.53;;;6.24;45.24
59531;BME280;45349;48.692;8.186;2023-04-05T10:49:21;99074.19;;;6.31;47.03
59531;BME280;45349;48.692;8.186;2023-04-05T10:51:50;99068.63;;;6.36;46.43
59531;BME280;45349;48.692;8.186;2023-04-05T10:54:18;99067.16;;;6.56;48.42
59531;BME280;45349;48.692;8.186;2023-04-05T10:56:45;99077.31;;;6.71;49.12
59531;BME280;45349;48.692;8.186;2023-04-05T10:59:14;99069.28;;;6.62;45.94
59531;BME280;45349;48.692;8.186;2023-04-05T11:01:41;99062.94;;;6.67;45.60
59531;BME280;45349;48.692;8.186;2023-04-05T11:04:12;99062.59;;;6.71;45.35
59531;BME280;45349;48.692;8.186;2023-04-05T11:06:40;99065.28;;;6.70;44.42
59531;BME280;45349;48.692;8.186;2023-04-05T11:09:10;99058.91;;;6.62;44.77
59531;BME280;45349;48.692;8.186;2023-04-05T11:11:38;99055.03;;;6.57;45.92
59531;BME280;45349;48.692;8.186;2023-04-05T11:14:21;99057.66;;;6.79;45.71
59531;BME280;45349;48.692;8.186;2023-04-05T11:16:51;99060.03;;;6.83;44.13
59531;BME280;45349;48.692;8.186;2023-04-05T11:19:49;99051.41;;;6.82;44.40
59531;BME280;45349;48.692;8.186;2023-04-05T11:22:24;99054.59;;;6.97;46.79
59531;BME280;45349;48.692;8.186;2023-04-05T11:24:53;99051.66;;;7.13;46.00
59531;BME280;45349;48.692;8.186;2023-04-05T11:27:24;99053.41;;;7.35;46.14
59531;BME280;45349;48.692;8.186;2023-04-05T11:29:53;99040.09;;;7.40;44.89
59531;BME280;45349;48.692;8.186;2023-04-05T11:32:20;99046.09;;;7.41;45.57
59531;BME280;45349;48.692;8.186;2023-04-05T11:34:57;99040.56;;;7.34;45.23
59531;BME280;45349;48.692;8.186;2023-04-05T11:37:52;99050.00;;;7.35;44.18
59531;BME280;45349;48.692;8.186;2023-04-05T11:40:27;99038.38;;;7.50;45.26
59531;BME280;45349;48.692;8.186;2023-04-05T11:42:58;99035.69;;;7.52;45.89
59531;BME280;45349;48.692;8.186;2023-04-05T11:45:28;99042.63;;;7.63;43.88
59531;BME280;45349;48.692;8.186;2023-04-05T11:47:55;99028.22;;;7.59;45.55
59531;BME280;45349;48.692;8.186;2023-04-05T11:50:22;99027.22;;;7.82;46.80
59531;BME280;45349;48.692;8.186;2023-04-05T11:53:10;99021.56;;;7.77;42.82
59531;BME280;45349;48.692;8.186;2023-04-05T11:55:38;99027.69;;;7.76;43.30
59531;BME280;45349;48.692;8.186;2023-04-05T11:58:12;99029.09;;;7.80;45.86
59531;BME280;45349;48.692;8.186;2023-04-05T12:00:41;99023.59;;;7.74;43.80
59531;BME280;45349;48.692;8.186;2023-04-05T12:03:10;99024.81;;;7.91;44.22
59531;BME280;45349;48.692;8.186;2023-04-05T12:05:47;99014.91;;;7.85;44.81
59531;BME280;45349;48.692;8.186;2023-04-05T12:08:14;99010.66;;;7.83;44.31
59531;BME280;45349;48.692;8.186;2023-04-05T12:10:41;99013.38;;;7.93;44.78
59531;BME280;45349;48.692;8.186;2023-04-05T12:13:07;99013.63;;;7.90;43.43
59531;BME280;45349;48.692;8.186;2023-04-05T12:15:36;99012.28;;;7.96;44.04
59531;BME280;45349;48.692;8.186;2023-04-05T12:18:11;98998.97;;;8.10;43.25
59531;BME280;45349;48.692;8.186;2023-04-05T12:20:38;99009.94;;;8.14;44.11
59531;BME280;45349;48.692;8.186;2023-04-05T12:23:05;99005.09;;;8.21;43.88
59531;BME280;45349;48.692;8.186;2023-04-05T12:25:32;99004.00;;;8.23;44.09
59531;BME280;45349;48.692;8.186;2023-04-05T12:28:04;99009.59;;;8.40;44.36
59531;BME280;45349;48.692;8.186;2023-04-05T12:30:32;98994.47;;;8.55;42.02
59531;BME280;45349;48.692;8.186;2023-04-05T12:33:07;98997.97;;;8.65;43.25
59531;BME280;45349;48.692;8.186;2023-04-05T12:35:34;99000.28;;;8.59;40.54
59531;BME280;45349;48.692;8.186;2023-04-05T12:38:01;98985.81;;;8.45;41.78
59531;BME280;45349;48.692;8.186;2023-04-05T12:40:30;99000.00;;;8.62;43.23
59531;BME280;45349;48.692;8.186;2023-04-05T12:43:00;98999.34;;;8.69;41.70
59531;BME280;45349;48.692;8.186;2023-04-05T12:45:28;98990.13;;;8.86;43.07
59531;BME280;45349;48.692;8.186;2023-04-05T12:47:57;98999.34;;;8.91;42.33
59531;BME280;45349;48.692;8.186;2023-04-05T12:50:27;98996.16;;;8.87;42.24
59531;BME280;45349;48.692;8.186;2023-04-05T12:52:58;98991.66;;;8.89;42.04
59531;BME280;45349;48.692;8.186;2023-04-05T12:55:26;98999.28;;;8.81;41.31
59531;BME280;45349;48.692;8.186;2023-04-05T12:57:54;98987.72;;;8.95;43.19
59531;BME280;45349;48.692;8.186;2023-04-05T13:00:24;98987.84;;;9.03;41.57
59531;BME280;45349;48.692;8.186;2023-04-05T13:02:53;98979.28;;;9.22;40.56
59531;BME280;45349;48.692;8.186;2023-04-05T13:05:21;98985.19;;;9.34;39.53
59531;BME280;45349;48.692;8.186;2023-04-05T13:07:49;98978.22;;;9.35;40.80
59531;BME280;45349;48.692;8.186;2023-04-05T13:10:16;98975.47;;;9.26;39.79
59531;BME280;45349;48.692;8.186;2023-04-05T13:12:43;98975.75;;;9.43;40.30
59531;BME280;45349;48.692;8.186;2023-04-05T13:15:09;98970.28;;;9.46;40.85
59531;BME280;45349;48.692;8.186;2023-04-05T13:17:36;98969.19;;;9.58;39.89
59531;BME280;45349;48.692;8.186;2023-04-05T13:20:04;98963.44;;;9.55;40.57
59531;BME280;45349;48.692;8.186;2023-04-05T13:22:30;98962.31;;;9.48;40.30